Time;durP1;ratioP1;P1;durP2;ratioP2;P2;SDS_P1;SDS_P2;PMS_P1;PMS_P2;Temp;Humidity;BMP_temperature;BMP_pressure;BME280_temperature;BME280_humidity;BME280_pressure;Samples;Min_cycle;Max_cycle;Signal;HPM_P1;HPM_P2
2023/06/18 00:00:34;;;;;;;4.60;3.45;;;;;;;23.55;47.77;99994.69;5093338;28;20075;-70
2023/06/18 00:03:03;;;;;;;4.50;3.40;;;;;;;23.55;47.83;99990.09;5093488;28;20052;-70
2023/06/18 00:05:31;;;;;;;4.95;3.50;;;;;;;23.55;47.72;99994.69;5093480;28;20397;-70
2023/06/18 00:07:59;;;;;;;5.85;3.50;;;;;;;23.51;48.13;99985.19;5093127;28;20048;-70
2023/06/18 00:10:31;;;;;;;6.47;3.75;;;;;;;23.44;48.03;99985.06;5093106;28;20090;-70
2023/06/18 00:12:59;;;;;;;5.20;3.20;;;;;;;23.33;48.05;99989.03;5093046;28;20048;-70
2023/06/18 00:15:27;;;;;;;5.53;3.28;;;;;;;23.28;48.27;99991.47;5092874;28;20051;-70
2023/06/18 00:17:56;;;;;;;5.95;3.70;;;;;;;23.25;48.26;99988.25;5092812;28;20058;-70
2023/06/18 00:20:24;;;;;;;4.85;3.13;;;;;;;23.26;48.22;99987.22;5093003;28;20067;-70
2023/06/18 00:22:52;;;;;;;5.90;3.53;;;;;;;23.26;48.42;99979.94;5092897;28;20180;-70
2023/06/18 00:25:21;;;;;;;5.07;3.30;;;;;;;23.28;48.41;99974.31;5092831;28;20072;-70
2023/06/18 00:27:50;;;;;;;4.57;3.40;;;;;;;23.30;48.29;99972.25;5092565;28;20113;-70
2023/06/18 00:30:18;;;;;;;4.75;3.10;;;;;;;23.31;48.37;99976.66;5092936;28;20461;-70
2023/06/18 00:32:48;;;;;;;6.15;3.40;;;;;;;23.32;48.28;99979.19;5092259;28;20138;-70
2023/06/18 00:35:16;;;;;;;5.15;3.60;;;;;;;23.32;48.26;99981.91;5092633;28;20044;-70
2023/06/18 00:37:45;;;;;;;6.25;3.90;;;;;;;23.31;48.34;99993.81;5092492;28;20048;-70
2023/06/18 00:40:14;;;;;;;4.38;3.40;;;;;;;23.31;48.47;99990.25;5092490;28;20048;-70
2023/06/18 00:42:43;;;;;;;4.88;3.38;;;;;;;23.30;48.24;99985.84;5092394;28;20052;-70
2023/06/18 00:45:13;;;;;;;4.65;3.22;;;;;;;23.30;48.27;99992.13;5092397;28;20040;-70
2023/06/18 00:47:44;;;;;;;5.13;3.35;;;;;;;23.30;47.98;99991.28;5092516;28;20055;-70
2023/06/18 00:50:14;;;;;;;5.43;3.10;;;;;;;23.29;48.13;99985.00;5092457;28;20109;-70
2023/06/18 00:52:44;;;;;;;5.57;3.28;;;;;;;23.30;48.30;99983.97;5092320;28;20044;-70
2023/06/18 00:55:16;;;;;;;5.05;3.40;;;;;;;23.27;48.38;99984.34;5092280;28;20064;-71
2023/06/18 00:57:49;;;;;;;5.25;3.25;;;;;;;23.24;48.26;99981.97;5092445;28;20054;-71
2023/06/18 01:00:22;;;;;;;5.75;3.53;;;;;;;23.22;48.30;99981.31;5092260;28;20044;-70
2023/06/18 01:02:53;;;;;;;6.53;3.53;;;;;;;23.21;48.64;99987.78;5092262;28;20067;-71
2023/06/18 01:05:23;;;;;;;5.05;3.42;;;;;;;23.21;48.32;99985.06;5091989;28;20553;-71
2023/06/18 01:07:52;;;;;;;4.93;3.28;;;;;;;23.21;48.26;99987.78;5091892;28;20543;-71
2023/06/18 01:10:21;;;;;;;4.28;3.20;;;;;;;23.22;48.37;99985.91;5092219;28;20055;-71
2023/06/18 01:12:50;;;;;;;4.97;3.33;;;;;;;23.21;48.45;99985.06;5092057;28;20048;-70
2023/06/18 01:15:19;;;;;;;5.32;3.30;;;;;;;23.22;48.24;99983.19;5091799;28;20442;-71
2023/06/18 01:17:49;;;;;;;4.78;3.15;;;;;;;23.22;48.13;99984.03;5091896;28;20124;-71
2023/06/18 01:20:19;;;;;;;5.00;3.13;;;;;;;23.22;48.26;99983.19;5091646;28;20094;-70
2023/06/18 01:22:57;;;;;;;4.20;3.10;;;;;;;23.21;48.36;99993.22;5091962;28;20047;-70
2023/06/18 01:25:29;;;;;;;5.35;3.17;;;;;;;23.20;48.25;99988.81;5091879;28;20121;-71
2023/06/18 01:27:57;;;;;;;6.45;3.50;;;;;;;23.19;48.28;99986.28;5091757;28;20055;-70
2023/06/18 01:30:27;;;;;;;4.95;3.15;;;;;;;23.19;48.41;99983.56;5091663;28;20068;-70
2023/06/18 01:32:56;;;;;;;5.00;3.20;;;;;;;23.17;48.47;99982.88;5091512;28;20048;-70
2023/06/18 01:35:24;;;;;;;5.10;3.05;;;;;;;23.17;48.53;99989.19;5091524;28;20044;-70
2023/06/18 01:38:13;;;;;;;5.28;3.38;;;;;;;23.16;48.36;99983.88;5091656;28;20089;-70
2023/06/18 01:40:49;;;;;;;4.45;2.92;;;;;;;23.16;48.45;99987.44;5091548;28;20127;-70
2023/06/18 01:43:24;;;;;;;5.28;3.28;;;;;;;23.15;48.37;99993.94;5091539;28;20044;-70
2023/06/18 01:45:59;;;;;;;5.10;3.25;;;;;;;23.15;48.53;99988.47;5091399;28;20489;-70
2023/06/18 01:48:32;;;;;;;5.53;3.25;;;;;;;23.14;48.49;99994.97;5091629;28;20097;-70
2023/06/18 01:51:02;;;;;;;5.40;3.40;;;;;;;23.13;48.44;99993.25;5091437;28;20044;-70
2023/06/18 01:53:32;;;;;;;4.70;3.17;;;;;;;23.12;48.51;99989.69;5091235;28;20121;-70
2023/06/18 01:56:02;;;;;;;5.10;3.50;;;;;;;23.12;48.56;100003.31;5091292;28;20062;-70
2023/06/18 01:58:33;;;;;;;4.88;3.20;;;;;;;23.11;48.42;99998.88;5091510;28;20066;-71
2023/06/18 02:01:03;;;;;;;5.00;3.38;;;;;;;23.11;48.50;100000.75;5091282;28;20135;-70
2023/06/18 02:03:31;;;;;;;5.63;3.33;;;;;;;23.11;48.46;99998.03;5091155;28;20142;-71
2023/06/18 02:06:00;;;;;;;4.53;3.25;;;;;;;23.10;48.70;100007.22;5091262;28;20048;-71
2023/06/18 02:08:28;;;;;;;4.10;2.80;;;;;;;23.08;48.58;100001.13;5091237;28;20400;-71
2023/06/18 02:10:56;;;;;;;4.82;3.40;;;;;;;23.06;48.49;100006.72;5091321;28;20048;-70
2023/06/18 02:13:24;;;;;;;5.25;3.45;;;;;;;23.07;48.66;100007.59;5091007;28;20482;-70
2023/06/18 02:15:53;;;;;;;4.40;2.85;;;;;;;23.06;48.45;100009.44;5091160;28;20044;-70
2023/06/18 02:18:22;;;;;;;4.30;3.03;;;;;;;23.07;48.54;100010.31;5090942;28;20044;-69
2023/06/18 02:20:51;;;;;;;4.57;3.17;;;;;;;23.06;48.54;100014.03;5091014;28;20068;-70
2023/06/18 02:23:19;;;;;;;4.32;2.90;;;;;;;23.06;48.34;100011.31;5090938;28;20497;-69
2023/06/18 02:25:48;;;;;;;4.60;3.28;;;;;;;23.05;48.58;100009.63;5091275;28;20052;-70
2023/06/18 02:28:17;;;;;;;4.93;3.30;;;;;;;23.03;48.69;100017.13;5091029;28;20044;-70
2023/06/18 02:30:45;;;;;;;4.55;2.92;;;;;;;23.02;48.45;100015.44;5091044;28;20629;-70
2023/06/18 02:33:17;;;;;;;4.82;3.00;;;;;;;23.02;48.78;100012.72;5090903;28;20109;-69
2023/06/18 02:35:47;;;;;;;4.45;3.20;;;;;;;23.01;48.70;100014.59;5091406;28;20044;-70
2023/06/18 02:38:15;;;;;;;4.47;3.25;;;;;;;23.00;48.44;100012.91;5091148;28;20055;-69
2023/06/18 02:40:43;;;;;;;5.20;2.92;;;;;;;22.99;48.39;100013.94;5091090;28;20135;-69
2023/06/18 02:43:12;;;;;;;4.78;3.25;;;;;;;22.99;48.52;100010.38;5091010;28;20417;-69
2023/06/18 02:45:40;;;;;;;5.25;3.15;;;;;;;22.98;48.51;100014.09;5090897;28;20105;-69
2023/06/18 02:48:08;;;;;;;3.88;3.10;;;;;;;22.95;48.56;100020.72;5090838;28;20127;-69
2023/06/18 02:50:37;;;;;;;4.90;3.40;;;;;;;22.93;48.55;100017.34;5091188;28;20128;-69
2023/06/18 02:53:06;;;;;;;4.97;3.10;;;;;;;22.93;48.56;100024.66;5090856;28;20071;-71
2023/06/18 02:55:34;;;;;;;4.85;3.20;;;;;;;22.91;48.79;100024.00;5090966;28;20404;-69
2023/06/18 02:58:03;;;;;;;4.78;3.20;;;;;;;22.91;48.63;100032.16;5093901;28;20048;-71
2023/06/18 03:00:32;;;;;;;4.38;2.97;;;;;;;22.91;48.63;100026.72;5094302;28;20044;-69
2023/06/18 03:03:00;;;;;;;4.35;3.00;;;;;;;22.91;48.68;100033.00;5094680;28;20479;-71
2023/06/18 03:05:28;;;;;;;4.40;3.10;;;;;;;22.93;48.64;100038.25;5094595;28;20086;-70
2023/06/18 03:07:56;;;;;;;4.35;3.13;;;;;;;22.91;48.58;100041.16;5094397;28;20063;-70
2023/06/18 03:10:26;;;;;;;5.47;3.10;;;;;;;22.91;48.60;100040.31;5094491;28;20413;-70
2023/06/18 03:12:54;;;;;;;5.10;3.05;;;;;;;22.90;48.64;100041.34;5094169;28;20047;-69
2023/06/18 03:15:23;;;;;;;4.22;3.22;;;;;;;22.89;48.49;100042.38;5094123;28;20459;-69
2023/06/18 03:17:51;;;;;;;4.95;3.10;;;;;;;22.89;48.63;100039.66;5094242;28;20048;-69
2023/06/18 03:20:20;;;;;;;4.57;3.33;;;;;;;22.87;48.73;100039.81;5094089;28;20051;-69
2023/06/18 03:22:49;;;;;;;4.05;3.03;;;;;;;22.85;48.76;100042.69;5094095;28;20043;-69
2023/06/18 03:25:17;;;;;;;4.82;3.20;;;;;;;22.85;48.56;100047.28;5093965;28;20059;-69
2023/06/18 03:27:47;;;;;;;5.25;3.30;;;;;;;22.83;48.60;100044.72;5093946;28;20043;-70
2023/06/18 03:30:15;;;;;;;5.68;3.55;;;;;;;22.82;48.60;100040.31;5094062;28;20094;-70
2023/06/18 03:32:44;;;;;;;4.80;2.95;;;;;;;22.82;48.78;100048.47;5094076;28;20126;-71
2023/06/18 03:35:12;;;;;;;5.38;3.50;;;;;;;22.81;48.76;100041.34;5093828;28;20063;-71
2023/06/18 03:37:40;;;;;;;4.95;3.20;;;;;;;22.80;48.75;100049.69;5093889;28;20044;-71
2023/06/18 03:40:10;;;;;;;4.80;3.40;;;;;;;22.80;48.90;100045.09;5093789;28;20052;-71
2023/06/18 03:42:41;;;;;;;5.97;3.38;;;;;;;22.80;48.90;100044.25;5093746;28;20489;-71
2023/06/18 03:45:11;;;;;;;4.75;2.80;;;;;;;22.80;48.91;100046.97;5093737;28;20488;-70
2023/06/18 03:47:39;;;;;;;4.18;3.15;;;;;;;22.79;48.90;100054.28;5093632;28;20143;-70
2023/06/18 03:50:08;;;;;;;4.93;3.50;;;;;;;22.79;48.67;100051.56;5093514;28;20044;-71
2023/06/18 03:52:36;;;;;;;5.35;3.40;;;;;;;22.79;49.12;100059.72;5093356;28;20486;-70
2023/06/18 03:55:06;;;;;;;4.90;3.10;;;;;;;22.80;49.03;100053.25;5093236;28;20056;-71
2023/06/18 03:57:34;;;;;;;4.97;3.30;;;;;;;22.78;48.96;100054.44;5093469;28;20044;-70
2023/06/18 04:00:03;;;;;;;4.47;3.50;;;;;;;22.76;48.89;100053.75;5093308;28;20050;-71
2023/06/18 04:02:32;;;;;;;5.72;3.55;;;;;;;22.75;49.03;100061.06;5093322;28;20055;-70
2023/06/18 04:05:00;;;;;;;6.43;3.17;;;;;;;22.77;49.19;100055.44;5093261;28;20044;-70
2023/06/18 04:07:29;;;;;;;4.95;2.95;;;;;;;22.78;49.28;100057.16;5092616;28;20052;-70
2023/06/18 04:09:57;;;;;;;5.38;3.70;;;;;;;22.79;49.38;100059.72;5092577;28;20570;-70
2023/06/18 04:12:25;;;;;;;4.65;3.38;;;;;;;22.79;49.72;100059.72;5093250;28;20074;-71
2023/06/18 04:14:53;;;;;;;4.25;3.20;;;;;;;22.80;49.70;100055.97;5093015;28;20050;-70
2023/06/18 04:17:21;;;;;;;4.95;3.28;;;;;;;22.80;49.47;100061.41;5093018;28;20052;-71
2023/06/18 04:19:53;;;;;;;4.60;3.40;;;;;;;22.80;49.47;100066.84;5092786;28;20153;-71
2023/06/18 04:22:21;;;;;;;5.90;3.58;;;;;;;22.82;49.23;100070.22;5093032;28;20048;-70
2023/06/18 04:24:50;;;;;;;5.22;3.47;;;;;;;22.81;49.52;100063.09;5093132;28;20059;-70
2023/06/18 04:27:18;;;;;;;4.78;3.17;;;;;;;22.82;49.41;100064.78;5092864;28;20142;-70
2023/06/18 04:29:46;;;;;;;4.97;3.65;;;;;;;22.81;49.40;100063.09;5092898;28;20076;-69
2023/06/18 04:32:14;;;;;;;5.85;3.72;;;;;;;22.82;49.55;100063.94;5092705;28;20048;-69
2023/06/18 04:34:42;;;;;;;4.47;3.40;;;;;;;22.82;49.77;100067.50;5092829;28;20058;-69
2023/06/18 04:37:12;;;;;;;4.50;3.42;;;;;;;22.80;49.42;100064.13;5092862;28;20051;-69
2023/06/18 04:39:40;;;;;;;4.95;3.20;;;;;;;22.80;49.11;100076.88;5092536;28;20487;-70
2023/06/18 04:42:08;;;;;;;4.45;3.13;;;;;;;22.79;49.37;100075.19;5092611;28;20044;-71
2023/06/18 04:44:36;;;;;;;5.53;3.50;;;;;;;22.78;49.41;100073.47;5092544;28;20070;-70
2023/06/18 04:47:05;;;;;;;4.20;3.10;;;;;;;22.77;49.27;100075.31;5092315;28;20469;-70
2023/06/18 04:49:33;;;;;;;5.25;3.38;;;;;;;22.77;49.41;100088.91;5092523;28;20127;-70
2023/06/18 04:52:01;;;;;;;6.25;3.58;;;;;;;22.76;49.55;100084.50;5092491;28;20472;-70
2023/06/18 04:54:31;;;;;;;4.43;3.28;;;;;;;22.75;49.79;100090.97;5092285;28;20047;-70
2023/06/18 04:56:59;;;;;;;5.43;3.60;;;;;;;22.74;49.70;100089.28;5092204;28;20044;-71
2023/06/18 04:59:27;;;;;;;4.57;3.30;;;;;;;22.77;49.75;100088.06;5092180;28;20121;-70
2023/06/18 05:01:55;;;;;;;4.90;3.40;;;;;;;22.78;49.69;100087.06;5092158;28;20485;-70
2023/06/18 05:04:24;;;;;;;4.10;3.00;;;;;;;22.80;50.29;100088.59;5092389;28;20051;-70
2023/06/18 05:06:52;;;;;;;4.35;3.28;;;;;;;22.83;49.99;100090.09;5092188;28;20050;-70
2023/06/18 05:09:20;;;;;;;4.47;3.42;;;;;;;22.84;50.20;100089.97;5091793;28;20048;-71
2023/06/18 05:11:49;;;;;;;4.25;3.10;;;;;;;22.85;50.21;100091.66;5092003;28;20077;-71
2023/06/18 05:14:18;;;;;;;6.95;3.50;;;;;;;22.87;50.01;100098.78;5091762;28;20052;-71
2023/06/18 05:16:46;;;;;;;5.78;3.47;;;;;;;22.88;50.13;100100.50;5092113;28;20164;-70
2023/06/18 05:19:14;;;;;;;4.72;3.30;;;;;;;22.90;50.13;100101.16;5091676;28;20048;-71
2023/06/18 05:21:42;;;;;;;4.15;2.95;;;;;;;22.90;49.91;100107.47;5091940;28;20044;-70
2023/06/18 05:24:13;;;;;;;5.50;3.25;;;;;;;22.93;50.33;100111.69;5091809;28;20493;-70
2023/06/18 05:26:43;;;;;;;5.18;3.10;;;;;;;22.93;49.98;100107.09;5091442;28;20071;-70
2023/06/18 05:29:13;;;;;;;5.55;3.30;;;;;;;22.93;50.07;100109.81;5091734;28;20075;-70
2023/06/18 05:31:41;;;;;;;4.85;3.03;;;;;;;22.95;50.25;100112.34;5091926;28;20549;-70
2023/06/18 05:34:09;;;;;;;5.13;3.40;;;;;;;22.96;50.24;100119.50;5091771;28;20432;-70
2023/06/18 05:36:37;;;;;;;5.20;3.00;;;;;;;22.98;50.34;100122.91;5091751;28;20051;-70
2023/06/18 05:39:05;;;;;;;5.15;3.40;;;;;;;22.97;49.63;100118.47;5091617;28;20055;-71
2023/06/18 05:41:33;;;;;;;4.05;2.95;;;;;;;22.96;49.63;100123.06;5091438;28;20127;-70
2023/06/18 05:44:02;;;;;;;4.57;3.13;;;;;;;22.97;50.14;100122.06;5091692;28;20043;-70
2023/06/18 05:46:31;;;;;;;5.35;3.33;;;;;;;22.99;50.22;100132.75;5091293;28;20051;-70
2023/06/18 05:49:00;;;;;;;5.15;3.20;;;;;;;23.01;50.34;100133.41;5091650;28;20473;-70
2023/06/18 05:51:28;;;;;;;4.90;3.20;;;;;;;23.02;50.44;100135.13;5091486;28;20394;-70
2023/06/18 05:53:56;;;;;;;4.80;3.10;;;;;;;23.01;49.91;100127.97;5091305;28;20161;-71
2023/06/18 05:56:24;;;;;;;4.72;3.30;;;;;;;23.01;49.82;100134.28;5091536;28;20143;-71
2023/06/18 05:58:53;;;;;;;5.47;3.08;;;;;;;23.01;49.89;100133.41;5091329;28;20051;-71
2023/06/18 06:01:21;;;;;;;4.72;3.10;;;;;;;23.03;50.14;100136.81;5091484;28;20048;-70
2023/06/18 06:03:51;;;;;;;4.32;3.22;;;;;;;23.04;50.21;100136.63;5091293;28;20052;-70
2023/06/18 06:06:19;;;;;;;6.28;3.13;;;;;;;23.07;50.34;100138.16;5091237;28;20531;-69
2023/06/18 06:08:47;;;;;;;4.25;3.03;;;;;;;23.06;50.25;100137.28;5090426;28;20493;-70
2023/06/18 06:11:15;;;;;;;3.88;2.88;;;;;;;23.07;49.72;100139.03;5090798;28;20082;-69
2023/06/18 06:13:44;;;;;;;4.63;3.10;;;;;;;23.05;49.79;100137.47;5090910;28;20043;-70
2023/06/18 06:16:12;;;;;;;4.53;3.20;;;;;;;23.05;49.93;100140.19;5090521;28;20051;-69
2023/06/18 06:18:40;;;;;;;4.40;3.10;;;;;;;23.05;49.72;100140.19;5090686;28;20558;-69
2023/06/18 06:21:10;;;;;;;4.75;3.35;;;;;;;23.07;50.13;100140.91;5090766;28;20047;-69
2023/06/18 06:23:38;;;;;;;4.32;3.05;;;;;;;23.09;50.17;100138.84;5091241;28;20063;-70
2023/06/18 06:26:06;;;;;;;4.80;3.10;;;;;;;23.11;50.40;100144.94;5090568;28;20044;-69
2023/06/18 06:28:37;;;;;;;5.20;3.50;;;;;;;23.13;50.57;100153.78;5091888;28;20453;-69
2023/06/18 06:31:06;;;;;;;5.95;3.85;;;;;;;23.12;49.52;100152.09;5091183;28;20105;-70
2023/06/18 06:33:34;;;;;;;6.22;3.15;;;;;;;23.07;49.11;100139.03;5094955;28;20048;-70
2023/06/18 06:36:03;;;;;;;5.95;3.45;;;;;;;23.04;49.03;100144.78;5094869;28;20091;-70
2023/06/18 06:38:32;;;;;;;4.70;3.28;;;;;;;23.05;49.04;100145.63;5095026;28;20576;-70
2023/06/18 06:41:00;;;;;;;4.88;3.25;;;;;;;23.06;49.28;100148.19;5095114;28;20043;-70
2023/06/18 06:43:28;;;;;;;4.47;3.20;;;;;;;23.08;49.39;100150.75;5094827;28;20044;-70
2023/06/18 06:45:56;;;;;;;5.38;3.03;;;;;;;23.10;49.73;100148.69;5094711;28;20098;-70
2023/06/18 06:48:25;;;;;;;4.93;3.03;;;;;;;23.12;49.87;100142.03;5094581;28;20040;-69
2023/06/18 06:50:54;;;;;;;6.80;3.20;;;;;;;23.13;49.55;100146.47;5094973;28;20048;-69
2023/06/18 06:53:22;;;;;;;4.22;3.03;;;;;;;23.14;49.96;100145.44;5094695;28;20039;-69
2023/06/18 06:55:51;;;;;;;4.50;3.20;;;;;;;23.15;49.48;100146.28;5094496;28;20073;-69
2023/06/18 06:58:19;;;;;;;6.10;3.60;;;;;;;23.14;49.10;100144.59;5094468;28;20050;-69
2023/06/18 07:00:48;;;;;;;5.35;3.05;;;;;;;23.14;49.14;100147.31;5094386;28;20074;-69
2023/06/18 07:03:16;;;;;;;5.85;3.50;;;;;;;23.14;49.33;100148.16;5093892;28;20129;-70
2023/06/18 07:05:44;;;;;;;4.63;3.17;;;;;;;23.16;49.26;100139.81;5094415;28;20051;-70
2023/06/18 07:08:12;;;;;;;5.28;3.15;;;;;;;23.18;49.38;100145.09;5079943;28;20056;-70
2023/06/18 07:10:40;;;;;;;5.07;3.45;;;;;;;23.19;49.45;100152.22;5077451;28;20044;-70
2023/06/18 07:13:10;;;;;;;4.18;3.28;;;;;;;23.19;49.62;100147.63;5094059;28;20048;-70
2023/06/18 07:15:38;;;;;;;4.20;3.10;;;;;;;23.20;49.21;100143.91;5094007;28;20075;-69
2023/06/18 07:18:06;;;;;;;5.25;3.42;;;;;;;23.20;48.85;100143.91;5094024;28;20126;-69
2023/06/18 07:20:34;;;;;;;5.40;3.30;;;;;;;23.21;48.98;100140.16;5094200;28;20489;-70
2023/06/18 07:23:02;;;;;;;5.97;3.65;;;;;;;23.24;49.48;100139.78;5094155;28;20071;-71
2023/06/18 07:25:30;;;;;;;4.75;3.17;;;;;;;23.24;49.48;100142.50;5094029;28;20432;-70
2023/06/18 07:27:59;;;;;;;5.22;3.13;;;;;;;23.25;49.20;100136.03;5093905;28;20780;-70
2023/06/18 07:30:28;;;;;;;5.85;3.60;;;;;;;23.26;49.11;100139.59;5093764;28;20047;-70
2023/06/18 07:32:56;;;;;;;4.82;3.63;;;;;;;23.24;48.67;100134.34;5094139;28;20048;-69
2023/06/18 07:35:24;;;;;;;5.18;3.67;;;;;;;23.24;48.78;100131.63;5093833;28;20129;-69
2023/06/18 07:38:02;;;;;;;6.90;3.60;;;;;;;23.22;48.73;100130.94;5093795;28;20048;-70
2023/06/18 07:40:33;;;;;;;4.97;3.42;;;;;;;23.23;48.67;100138.09;5093506;28;20485;-70
2023/06/18 07:43:02;;;;;;;6.13;3.63;;;;;;;23.25;48.99;100125.16;5093766;28;20099;-72
2023/06/18 07:45:31;;;;;;;4.40;3.00;;;;;;;23.27;48.95;100136.72;5093770;28;20048;-70
2023/06/18 07:48:00;;;;;;;5.93;3.50;;;;;;;23.29;48.76;100137.38;5096719;28;20521;-68
2023/06/18 07:50:29;;;;;;;5.03;3.50;;;;;;;23.29;48.60;100129.22;5093532;28;20047;-69
2023/06/18 07:52:57;;;;;;;6.97;3.25;;;;;;;23.29;48.11;100125.66;5093368;28;20047;-68
2023/06/18 07:55:25;;;;;;;5.40;3.70;;;;;;;23.30;48.10;100121.91;5093218;28;20171;-68
2023/06/18 07:57:53;;;;;;;4.43;3.40;;;;;;;23.32;48.46;100125.28;5092996;28;20040;-67
2023/06/18 08:00:21;;;;;;;5.90;3.47;;;;;;;23.36;49.25;100124.78;5091970;28;20139;-68
2023/06/18 08:02:51;;;;;;;5.50;3.50;;;;;;;23.39;49.88;100121.69;5090411;28;20050;-68
2023/06/18 08:05:25;;;;;;;6.25;3.50;;;;;;;23.42;49.98;100124.03;5092671;28;20130;-69
2023/06/18 08:07:53;;;;;;;5.10;3.70;;;;;;;23.45;49.76;100131.03;5092911;28;20385;-69
2023/06/18 08:10:21;;;;;;;4.78;3.28;;;;;;;23.47;49.50;100123.53;5093280;28;20040;-69
2023/06/18 08:12:50;;;;;;;4.28;3.17;;;;;;;23.48;49.08;100124.38;5093157;28;20055;-70
2023/06/18 08:15:18;;;;;;;4.63;3.30;;;;;;;23.49;48.81;100124.19;5092988;28;20549;-69
2023/06/18 08:17:46;;;;;;;5.38;2.95;;;;;;;23.51;48.24;100121.28;5093073;28;20071;-68
2023/06/18 08:20:17;;;;;;;5.13;3.30;;;;;;;23.54;48.59;100129.09;5092689;28;20429;-68
2023/06/18 08:22:45;;;;;;;4.35;3.05;;;;;;;23.57;48.57;100136.91;5093067;28;20044;-68
2023/06/18 08:25:13;;;;;;;5.25;3.17;;;;;;;23.59;48.98;100126.72;5092833;28;20048;-68
2023/06/18 08:27:41;;;;;;;5.32;3.30;;;;;;;23.62;49.21;100131.78;5092852;28;20044;-68
2023/06/18 08:30:10;;;;;;;4.35;2.90;;;;;;;23.61;46.83;100124.66;5092517;28;20043;-67
2023/06/18 08:32:38;;;;;;;4.10;3.00;;;;;;;23.62;47.05;100127.19;5092431;28;20048;-68
2023/06/18 08:35:07;;;;;;;4.00;2.70;;;;;;;23.64;47.55;100125.16;5092112;28;20548;-69
2023/06/18 08:37:37;;;;;;;11.10;3.30;;;;;;;23.66;48.07;100125.81;5092068;28;20059;-69
2023/06/18 08:40:09;;;;;;;3.97;2.80;;;;;;;23.68;48.06;100114.75;5092099;28;20489;-69
2023/06/18 08:42:37;;;;;;;5.05;3.15;;;;;;;23.72;48.38;100124.25;5092091;28;20043;-69
2023/06/18 08:45:07;;;;;;;4.60;3.00;;;;;;;23.73;48.66;100123.22;5089603;28;20887;-69
2023/06/18 08:47:36;;;;;;;4.38;2.88;;;;;;;23.75;48.99;100118.47;5091805;28;20147;-70
2023/06/18 08:50:07;;;;;;;4.82;3.03;;;;;;;23.78;48.98;100111.78;5092153;28;20052;-70
2023/06/18 08:52:39;;;;;;;5.03;2.90;;;;;;;23.79;49.05;100111.59;5094112;28;20507;-69
2023/06/18 08:55:09;;;;;;;;;;;;;;;23.81;48.70;100112.25;5112711;27;20044;-69
2023/06/18 08:57:43;;;;;;;4.97;3.00;;;;;;;23.82;48.69;100116.69;5095006;28;19923;-69
2023/06/18 09:00:12;;;;;;;5.90;2.70;;;;;;;23.84;48.76;100113.81;5092117;28;20055;-69
2023/06/18 09:02:40;;;;;;;7.78;2.83;;;;;;;23.86;48.88;100118.03;5091998;28;20476;-69
2023/06/18 09:05:09;;;;;;;4.20;2.70;;;;;;;23.89;49.13;100114.94;5091853;28;20048;-69
2023/06/18 09:07:40;;;;;;;4.70;2.85;;;;;;;23.90;49.17;100118.50;5091781;28;20059;-73
2023/06/18 09:10:10;;;;;;;5.70;3.03;;;;;;;23.92;49.05;100121.88;5091375;28;20401;-70
2023/06/18 09:12:38;;;;;;;3.95;2.60;;;;;;;23.94;49.22;100123.44;5091783;28;20518;-71
2023/06/18 09:15:07;;;;;;;3.97;2.70;;;;;;;23.94;48.48;100115.25;5091979;28;20051;-66
2023/06/18 09:17:37;;;;;;;7.30;3.45;;;;;;;23.96;49.04;100118.63;5090344;28;20048;-66
2023/06/18 09:20:08;;;;;;;4.75;2.85;;;;;;;24.00;49.39;100124.56;5091696;28;20054;-68
2023/06/18 09:22:46;;;;;;;5.57;3.40;;;;;;;24.04;50.37;100114.16;5071499;28;20052;-71
2023/06/18 09:25:19;;;;;;;6.63;3.20;;;;;;;24.05;50.78;100116.69;5071424;28;20416;-68
2023/06/18 09:27:48;;;;;;;7.05;2.97;;;;;;;24.09;47.54;100120.75;5071682;28;20048;-68
2023/06/18 09:30:23;;;;;;;4.90;3.35;;;;;;;24.10;42.52;100119.69;5071383;28;20052;-68
2023/06/18 09:32:53;;;;;;;4.97;3.65;;;;;;;24.09;41.31;100128.91;5071438;28;20087;-69
2023/06/18 09:35:21;;;;;;;4.82;3.30;;;;;;;24.09;41.70;100112.56;5071388;28;20044;-71
2023/06/18 09:37:51;;;;;;;5.15;3.65;;;;;;;24.10;42.21;100113.41;5071017;28;20477;-68
2023/06/18 09:40:22;;;;;;;6.25;3.75;;;;;;;24.12;42.36;100114.06;5071395;28;20055;-66
2023/06/18 09:42:50;;;;;;;4.78;3.30;;;;;;;24.13;42.48;100119.38;5072529;28;20121;-68
2023/06/18 09:45:20;;;;;;;5.18;3.53;;;;;;;24.15;42.58;100114.56;5090350;28;20048;-72
2023/06/18 09:47:50;;;;;;;5.07;3.45;;;;;;;24.18;42.24;100116.06;5089964;28;20485;-65
2023/06/18 09:50:19;;;;;;;6.32;3.58;;;;;;;24.21;42.10;100104.78;5090378;28;20087;-67
2023/06/18 09:52:53;;;;;;;6.53;3.70;;;;;;;24.23;41.45;100119.09;5090855;28;20048;-67
2023/06/18 09:55:29;;;;;;;7.20;3.70;;;;;;;24.24;41.01;100113.47;5090697;28;20520;-64
2023/06/18 09:57:58;;;;;;;5.93;3.80;;;;;;;24.26;41.42;100110.56;5090473;28;20130;-68
2023/06/18 10:00:27;;;;;;;7.80;4.05;;;;;;;24.28;41.93;100113.94;5090614;28;20044;-67
2023/06/18 10:03:04;;;;;;;8.95;4.20;;;;;;;24.31;41.72;100120.88;5090713;28;20193;-66
2023/06/18 10:05:33;;;;;;;6.10;4.18;;;;;;;24.31;40.97;100119.03;5090960;28;20478;-66
2023/06/18 10:08:04;;;;;;;7.97;4.13;;;;;;;24.33;41.38;100111.56;5094652;28;20059;-67
2023/06/18 10:10:36;;;;;;;9.68;5.07;;;;;;;24.35;42.10;100109.47;5095610;28;20048;-69
2023/06/18 10:13:11;;;;;;;6.43;4.30;;;;;;;24.42;41.95;100107.72;5095305;28;20139;-68
2023/06/18 10:15:40;;;;;;;;;;;;;;;24.42;42.16;100110.44;5095683;28;20048;-70
2023/06/18 10:18:12;;;;;;;7.57;4.60;;;;;;;24.46;43.21;100105.47;5095266;28;19920;-67
2023/06/18 10:20:42;;;;;;;10.25;4.28;;;;;;;24.52;42.14;100107.44;5095251;28;20048;-70
2023/06/18 10:23:13;;;;;;;6.13;4.10;;;;;;;24.51;40.45;100106.59;5095052;28;20036;-67
2023/06/18 10:25:42;;;;;;;7.03;3.90;;;;;;;24.52;40.45;100107.44;5094915;28;20048;-63
2023/06/18 10:28:11;;;;;;;5.47;4.00;;;;;;;24.54;40.97;100108.94;5095360;28;20044;-67
2023/06/18 10:30:43;;;;;;;5.75;4.32;;;;;;;24.57;39.92;100115.91;5095250;28;20067;-67
2023/06/18 10:33:12;;;;;;;5.45;4.10;;;;;;;24.63;39.75;100109.72;5095032;28;20050;-66
2023/06/18 10:35:41;;;;;;;6.65;4.22;;;;;;;24.62;39.93;100104.47;5094962;28;20098;-67
2023/06/18 10:38:09;;;;;;;5.85;4.05;;;;;;;24.63;39.99;100100.69;5094715;28;20044;-67
2023/06/18 10:40:39;;;;;;;5.88;4.20;;;;;;;24.63;40.30;100101.53;5095005;28;20532;-67
2023/06/18 10:43:10;;;;;;;6.50;4.28;;;;;;;24.69;40.16;100108.94;5094995;28;20055;-67
2023/06/18 10:45:38;;;;;;;4.85;3.80;;;;;;;24.70;39.54;100104.34;5094639;28;20059;-66
2023/06/18 10:48:15;;;;;;;5.93;4.07;;;;;;;24.71;39.98;100111.50;5094689;28;20075;-68
2023/06/18 10:51:14;;;;;;;5.63;4.10;;;;;;;24.75;39.53;100112.81;5094652;28;20089;-68
2023/06/18 10:53:44;;;;;;;5.53;4.30;;;;;;;24.77;39.88;100110.75;5094697;28;20052;-67
2023/06/18 10:56:16;;;;;;;6.63;4.10;;;;;;;24.78;40.16;100101.53;5094550;28;20044;-65
2023/06/18 10:58:44;;;;;;;6.68;3.95;;;;;;;24.80;39.81;100102.19;5094473;28;20058;-65
2023/06/18 11:01:26;;;;;;;5.20;4.13;;;;;;;24.86;39.24;100098.72;5096607;28;20126;-69
2023/06/18 11:04:02;;;;;;;7.05;4.57;;;;;;;24.93;38.70;100105.13;5094277;28;20481;-72
2023/06/18 11:06:31;;;;;;;7.32;4.20;;;;;;;24.95;38.09;100096.75;5093208;28;20036;-66
2023/06/18 11:08:59;;;;;;;7.07;4.32;;;;;;;24.97;38.38;100098.22;5093597;28;20063;-67
2023/06/18 11:11:32;;;;;;;6.55;4.07;;;;;;;25.03;38.45;100102.97;5094001;28;20123;-67
2023/06/18 11:14:19;;;;;;;6.30;4.68;;;;;;;25.08;38.33;100095.06;5093718;28;20489;-65
2023/06/18 11:17:11;;;;;;;6.47;4.43;;;;;;;25.14;37.69;100103.53;5093894;28;20044;-66
2023/06/18 11:19:41;;;;;;;6.72;4.75;;;;;;;25.14;37.57;100101.66;5093497;28;20066;-67
2023/06/18 11:22:10;;;;;;;7.03;4.82;;;;;;;25.15;38.08;100092.41;5094039;28;20424;-66
2023/06/18 11:24:39;;;;;;;5.70;4.30;;;;;;;25.20;38.08;100089.13;5094171;28;20083;-66
2023/06/18 11:27:08;;;;;;;8.63;4.93;;;;;;;25.25;38.63;100083.94;5093871;28;20058;-65
2023/06/18 11:29:37;;;;;;;7.03;4.55;;;;;;;25.33;38.03;100086.56;5093933;28;20047;-65
2023/06/18 11:32:12;;;;;;;6.05;4.50;;;;;;;25.43;38.26;100086.25;5093946;28;20473;-63
2023/06/18 11:34:42;;;;;;;6.93;4.47;;;;;;;25.42;38.97;100088.13;5093594;28;20126;-65
2023/06/18 11:37:11;;;;;;;6.57;4.38;;;;;;;25.45;38.88;100086.91;5093852;28;20048;-67